sensor_id;sensor_type;location;lat;lon;timestamp;pressure;altitude;pressure_sealevel;temperature;humidity
40994;BME280;26722;43.212;27.932;2023-08-30T00:00:04;54879.63;;;-146.72;100.00
40994;BME280;26722;43.212;27.932;2023-08-30T00:02:29;54877.53;;;-146.72;100.00
40994;BME280;26722;43.212;27.932;2023-08-30T00:04:58;54883.84;;;-146.72;100.00
40994;BME280;26722;43.212;27.932;2023-08-30T00:07:24;54879.63;;;-146.72;100.00
40994;BME280;26722;43.212;27.932;2023-08-30T00:09:50;54875.41;;;-146.72;100.00
40994;BME280;26722;43.212;27.932;2023-08-30T00:12:16;54883.84;;;-146.72;100.00
40994;BME280;26722;43.212;27.932;2023-08-30T00:14:41;54883.84;;;-146.72;100.00
40994;BME280;26722;43.212;27.932;2023-08-30T00:17:07;54883.84;;;-146.72;100.00
40994;BME280;26722;43.212;27.932;2023-08-30T00:19:32;54875.41;;;-146.72;100.00
40994;BME280;26722;43.212;27.932;2023-08-30T00:21:58;54890.19;;;-146.72;100.00
40994;BME280;26722;43.212;27.932;2023-08-30T00:24:23;54879.63;;;-146.72;100.00
40994;BME280;26722;43.212;27.932;2023-08-30T00:26:48;54883.84;;;-146.72;100.00
40994;BME280;26722;43.212;27.932;2023-08-30T00:29:14;54879.63;;;-146.72;100.00
40994;BME280;26722;43.212;27.932;2023-08-30T00:31:39;54888.09;;;-146.72;100.00
40994;BME280;26722;43.212;27.932;2023-08-30T00:34:05;54885.97;;;-146.72;100.00
40994;BME280;26722;43.212;27.932;2023-08-30T00:36:30;54888.09;;;-146.72;100.00
40994;BME280;26722;43.212;27.932;2023-08-30T00:38:56;54896.53;;;-146.72;100.00
40994;BME280;26722;43.212;27.932;2023-08-30T00:41:21;54883.84;;;-146.72;100.00
40994;BME280;26722;43.212;27.932;2023-08-30T00:43:47;54892.31;;;-146.72;100.00
40994;BME280;26722;43.212;27.932;2023-08-30T00:46:13;54892.31;;;-146.72;100.00
40994;BME280;26722;43.212;27.932;2023-08-30T00:48:39;54888.09;;;-146.72;100.00
40994;BME280;26722;43.212;27.932;2023-08-30T00:51:06;54888.09;;;-146.72;100.00
40994;BME280;26722;43.212;27.932;2023-08-30T00:53:32;54892.31;;;-146.72;100.00
40994;BME280;26722;43.212;27.932;2023-08-30T00:55:57;54883.84;;;-146.72;100.00
40994;BME280;26722;43.212;27.932;2023-08-30T00:58:23;54881.75;;;-146.72;100.00
40994;BME280;26722;43.212;27.932;2023-08-30T01:00:52;54879.63;;;-146.72;100.00
40994;BME280;26722;43.212;27.932;2023-08-30T01:03:18;54879.63;;;-146.72;100.00
40994;BME280;26722;43.212;27.932;2023-08-30T01:05:44;54892.31;;;-146.72;100.00
40994;BME280;26722;43.212;27.932;2023-08-30T01:08:09;54892.31;;;-146.72;100.00
40994;BME280;26722;43.212;27.932;2023-08-30T01:13:28;54888.09;;;-146.72;100.00
40994;BME280;26722;43.212;27.932;2023-08-30T01:15:56;54871.19;;;-146.72;100.00
40994;BME280;26722;43.212;27.932;2023-08-30T01:18:26;54894.41;;;-146.72;100.00
40994;BME280;26722;43.212;27.932;2023-08-30T01:20:53;54894.41;;;-146.72;100.00
40994;BME280;26722;43.212;27.932;2023-08-30T01:23:56;54877.53;;;-146.72;100.00
40994;BME280;26722;43.212;27.932;2023-08-30T01:27:35;54881.75;;;-146.72;100.00
40994;BME280;26722;43.212;27.932;2023-08-30T01:29:30;54885.97;;;-146.72;100.00
40994;BME280;26722;43.212;27.932;2023-08-30T01:31:57;54892.31;;;-146.72;100.00
40994;BME280;26722;43.212;27.932;2023-08-30T01:34:23;54883.84;;;-146.72;100.00
40994;BME280;26722;43.212;27.932;2023-08-30T01:36:51;54896.53;;;-146.72;100.00
40994;BME280;26722;43.212;27.932;2023-08-30T01:39:17;54894.41;;;-146.72;100.00
40994;BME280;26722;43.212;27.932;2023-08-30T01:41:43;54883.84;;;-146.72;100.00
40994;BME280;26722;43.212;27.932;2023-08-30T01:44:10;54896.53;;;-146.72;100.00
40994;BME280;26722;43.212;27.932;2023-08-30T01:46:37;54875.41;;;-146.72;100.00
40994;BME280;26722;43.212;27.932;2023-08-30T01:49:04;54898.63;;;-146.72;100.00
40994;BME280;26722;43.212;27.932;2023-08-30T01:51:32;54892.31;;;-146.72;100.00
40994;BME280;26722;43.212;27.932;2023-08-30T01:53:58;54888.09;;;-146.72;100.00
40994;BME280;26722;43.212;27.932;2023-08-30T01:56:24;54890.19;;;-146.72;100.00
40994;BME280;26722;43.212;27.932;2023-08-30T01:58:49;54888.09;;;-146.72;100.00
40994;BME280;26722;43.212;27.932;2023-08-30T02:01:15;54898.63;;;-146.72;100.00
40994;BME280;26722;43.212;27.932;2023-08-30T02:03:43;54890.19;;;-146.72;100.00
40994;BME280;26722;43.212;27.932;2023-08-30T02:06:14;54879.63;;;-146.72;100.00
40994;BME280;26722;43.212;27.932;2023-08-30T02:09:35;54892.31;;;-146.72;100.00
40994;BME280;26722;43.212;27.932;2023-08-30T02:11:44;54885.97;;;-146.72;100.00
40994;BME280;26722;43.212;27.932;2023-08-30T02:14:13;54904.97;;;-146.72;100.00
40994;BME280;26722;43.212;27.932;2023-08-30T02:16:42;54888.09;;;-146.72;100.00
40994;BME280;26722;43.212;27.932;2023-08-30T02:19:08;54894.41;;;-146.72;100.00
40994;BME280;26722;43.212;27.932;2023-08-30T02:21:34;54892.31;;;-146.72;100.00
40994;BME280;26722;43.212;27.932;2023-08-30T02:24:00;54883.84;;;-146.72;100.00
40994;BME280;26722;43.212;27.932;2023-08-30T02:26:25;54898.63;;;-146.72;100.00
40994;BME280;26722;43.212;27.932;2023-08-30T02:28:51;54892.31;;;-146.72;100.00
40994;BME280;26722;43.212;27.932;2023-08-30T02:31:16;54888.09;;;-146.72;100.00
40994;BME280;26722;43.212;27.932;2023-08-30T02:33:42;54888.09;;;-146.72;100.00
40994;BME280;26722;43.212;27.932;2023-08-30T02:36:07;54892.31;;;-146.72;100.00
40994;BME280;26722;43.212;27.932;2023-08-30T02:38:33;54898.63;;;-146.72;100.00
40994;BME280;26722;43.212;27.932;2023-08-30T02:40:58;54900.75;;;-146.72;100.00
40994;BME280;26722;43.212;27.932;2023-08-30T02:43:24;54890.19;;;-146.72;100.00
40994;BME280;26722;43.212;27.932;2023-08-30T02:45:49;54896.53;;;-146.72;100.00
40994;BME280;26722;43.212;27.932;2023-08-30T02:48:16;54915.53;;;-146.72;100.00
40994;BME280;26722;43.212;27.932;2023-08-30T02:50:42;54892.31;;;-146.72;100.00
40994;BME280;26722;43.212;27.932;2023-08-30T02:53:07;54896.53;;;-146.72;100.00
40994;BME280;26722;43.212;27.932;2023-08-30T02:55:35;54892.31;;;-146.72;100.00
40994;BME280;26722;43.212;27.932;2023-08-30T02:58:01;54900.75;;;-146.72;100.00
40994;BME280;26722;43.212;27.932;2023-08-30T03:00:27;54904.97;;;-146.72;100.00
40994;BME280;26722;43.212;27.932;2023-08-30T03:02:52;54898.63;;;-146.72;100.00
40994;BME280;26722;43.212;27.932;2023-08-30T03:05:18;54904.97;;;-146.72;100.00
40994;BME280;26722;43.212;27.932;2023-08-30T03:07:44;54896.53;;;-146.72;100.00
40994;BME280;26722;43.212;27.932;2023-08-30T03:10:09;54894.41;;;-146.72;100.00
40994;BME280;26722;43.212;27.932;2023-08-30T03:12:35;54900.75;;;-146.72;100.00
40994;BME280;26722;43.212;27.932;2023-08-30T03:15:00;54888.09;;;-146.72;100.00
40994;BME280;26722;43.212;27.932;2023-08-30T03:17:26;54904.97;;;-146.72;100.00
40994;BME280;26722;43.212;27.932;2023-08-30T03:19:52;54900.75;;;-146.72;100.00
40994;BME280;26722;43.212;27.932;2023-08-30T03:22:20;54896.53;;;-146.72;100.00
40994;BME280;26722;43.212;27.932;2023-08-30T03:24:45;54900.75;;;-146.72;100.00
40994;BME280;26722;43.212;27.932;2023-08-30T03:27:11;54900.75;;;-146.72;100.00
40994;BME280;26722;43.212;27.932;2023-08-30T03:29:36;54898.63;;;-146.72;100.00
40994;BME280;26722;43.212;27.932;2023-08-30T03:32:02;54898.63;;;-146.72;100.00
40994;BME280;26722;43.212;27.932;2023-08-30T03:34:27;54896.53;;;-146.72;100.00
40994;BME280;26722;43.212;27.932;2023-08-30T03:36:53;54879.63;;;-146.72;100.00
40994;BME280;26722;43.212;27.932;2023-08-30T03:39:22;54885.97;;;-146.72;100.00
40994;BME280;26722;43.212;27.932;2023-08-30T03:41:49;54909.19;;;-146.72;100.00
40994;BME280;26722;43.212;27.932;2023-08-30T03:44:14;54898.63;;;-146.72;100.00
40994;BME280;26722;43.212;27.932;2023-08-30T03:46:40;54900.75;;;-146.72;100.00
40994;BME280;26722;43.212;27.932;2023-08-30T03:49:05;54902.84;;;-146.72;100.00
40994;BME280;26722;43.212;27.932;2023-08-30T03:51:30;54892.31;;;-146.72;100.00
40994;BME280;26722;43.212;27.932;2023-08-30T03:53:56;54892.31;;;-146.72;100.00
40994;BME280;26722;43.212;27.932;2023-08-30T03:56:22;54890.19;;;-146.72;100.00
40994;BME280;26722;43.212;27.932;2023-08-30T03:58:48;54892.31;;;-146.72;100.00
40994;BME280;26722;43.212;27.932;2023-08-30T04:01:14;54900.75;;;-146.72;100.00
40994;BME280;26722;43.212;27.932;2023-08-30T04:03:39;54890.19;;;-146.72;100.00
40994;BME280;26722;43.212;27.932;2023-08-30T04:06:05;54896.53;;;-146.72;100.00
40994;BME280;26722;43.212;27.932;2023-08-30T04:08:31;54896.53;;;-146.72;100.00
40994;BME280;26722;43.212;27.932;2023-08-30T04:10:56;54902.84;;;-146.72;100.00
40994;BME280;26722;43.212;27.932;2023-08-30T04:13:22;54902.84;;;-146.72;100.00
40994;BME280;26722;43.212;27.932;2023-08-30T04:15:48;54883.84;;;-146.72;100.00
40994;BME280;26722;43.212;27.932;2023-08-30T04:18:13;54885.97;;;-146.72;100.00
40994;BME280;26722;43.212;27.932;2023-08-30T04:20:43;54898.63;;;-146.72;100.00
40994;BME280;26722;43.212;27.932;2023-08-30T04:23:09;54883.84;;;-146.72;100.00
40994;BME280;26722;43.212;27.932;2023-08-30T04:25:35;54888.09;;;-146.72;100.00
40994;BME280;26722;43.212;27.932;2023-08-30T04:28:00;54885.97;;;-146.72;100.00
40994;BME280;26722;43.212;27.932;2023-08-30T04:30:25;54883.84;;;-146.72;100.00
40994;BME280;26722;43.212;27.932;2023-08-30T04:32:51;54883.84;;;-146.72;100.00
40994;BME280;26722;43.212;27.932;2023-08-30T04:35:17;54888.09;;;-146.72;100.00
40994;BME280;26722;43.212;27.932;2023-08-30T04:37:42;54864.88;;;-146.72;100.00
40994;BME280;26722;43.212;27.932;2023-08-30T04:40:08;54883.84;;;-146.72;100.00
40994;BME280;26722;43.212;27.932;2023-08-30T04:42:37;54883.84;;;-146.72;100.00
40994;BME280;26722;43.212;27.932;2023-08-30T04:45:05;54888.09;;;-146.72;100.00
40994;BME280;26722;43.212;27.932;2023-08-30T04:47:32;54888.09;;;-146.72;100.00
40994;BME280;26722;43.212;27.932;2023-08-30T04:49:58;54883.84;;;-146.72;100.00
40994;BME280;26722;43.212;27.932;2023-08-30T04:52:23;54883.84;;;-146.72;100.00
40994;BME280;26722;43.212;27.932;2023-08-30T04:54:49;54875.41;;;-146.72;100.00
40994;BME280;26722;43.212;27.932;2023-08-30T04:57:15;54869.09;;;-146.72;100.00
40994;BME280;26722;43.212;27.932;2023-08-30T04:59:42;54866.97;;;-146.72;100.00
40994;BME280;26722;43.212;27.932;2023-08-30T05:02:08;54862.75;;;-146.72;99.26
40994;BME280;26722;43.212;27.932;2023-08-30T05:04:34;54862.75;;;-146.72;96.44
40994;BME280;26722;43.212;27.932;2023-08-30T05:06:59;54850.09;;;-146.72;95.75
40994;BME280;26722;43.212;27.932;2023-08-30T05:09:24;54866.97;;;-146.72;95.76
40994;BME280;26722;43.212;27.932;2023-08-30T05:11:53;54858.53;;;-146.72;96.84
40994;BME280;26722;43.212;27.932;2023-08-30T05:14:19;54869.09;;;-146.72;96.90
40994;BME280;26722;43.212;27.932;2023-08-30T05:16:45;54860.63;;;-146.72;96.55
40994;BME280;26722;43.212;27.932;2023-08-30T05:19:11;54864.88;;;-146.72;95.09
40994;BME280;26722;43.212;27.932;2023-08-30T05:21:36;54860.63;;;-146.72;94.23
40994;BME280;26722;43.212;27.932;2023-08-30T05:24:02;54860.63;;;-146.72;91.80
40994;BME280;26722;43.212;27.932;2023-08-30T05:26:28;54854.31;;;-146.72;91.44
40994;BME280;26722;43.212;27.932;2023-08-30T05:28:53;54854.31;;;-146.72;91.06
40994;BME280;26722;43.212;27.932;2023-08-30T05:31:19;54850.09;;;-146.72;91.87
40994;BME280;26722;43.212;27.932;2023-08-30T05:33:44;54845.88;;;-146.72;92.50
40994;BME280;26722;43.212;27.932;2023-08-30T05:36:10;54850.09;;;-146.72;91.99
40994;BME280;26722;43.212;27.932;2023-08-30T05:38:35;54858.53;;;-146.72;91.17
40994;BME280;26722;43.212;27.932;2023-08-30T05:41:00;54866.97;;;-146.72;92.13
40994;BME280;26722;43.212;27.932;2023-08-30T05:43:26;54862.75;;;-146.72;93.05
40994;BME280;26722;43.212;27.932;2023-08-30T05:45:51;54858.53;;;-146.72;93.07
40994;BME280;26722;43.212;27.932;2023-08-30T05:48:17;54847.97;;;-146.72;91.38
40994;BME280;26722;43.212;27.932;2023-08-30T05:50:42;54850.09;;;-146.72;91.69
40994;BME280;26722;43.212;27.932;2023-08-30T05:53:08;54845.88;;;-146.72;92.26
40994;BME280;26722;43.212;27.932;2023-08-30T05:55:33;54850.09;;;-146.72;91.64
40994;BME280;26722;43.212;27.932;2023-08-30T05:57:59;54854.31;;;-146.72;92.79
40994;BME280;26722;43.212;27.932;2023-08-30T06:00:24;54854.31;;;-146.72;93.56
40994;BME280;26722;43.212;27.932;2023-08-30T06:02:51;54856.41;;;-146.72;92.62
40994;BME280;26722;43.212;27.932;2023-08-30T06:05:17;54850.09;;;-146.72;90.23
40994;BME280;26722;43.212;27.932;2023-08-30T06:07:43;54862.75;;;-146.72;90.79
40994;BME280;26722;43.212;27.932;2023-08-30T06:10:09;54845.88;;;-146.72;90.20
40994;BME280;26722;43.212;27.932;2023-08-30T06:12:34;54850.09;;;-146.72;88.18
40994;BME280;26722;43.212;27.932;2023-08-30T06:15:00;54852.19;;;-146.72;88.27
40994;BME280;26722;43.212;27.932;2023-08-30T06:17:25;54850.09;;;-146.72;87.89
40994;BME280;26722;43.212;27.932;2023-08-30T06:19:51;54850.09;;;-146.72;88.28
40994;BME280;26722;43.212;27.932;2023-08-30T06:22:17;54860.63;;;-146.72;89.09
40994;BME280;26722;43.212;27.932;2023-08-30T06:24:42;54850.09;;;-146.72;88.61
40994;BME280;26722;43.212;27.932;2023-08-30T06:27:08;54854.31;;;-146.72;88.55
40994;BME280;26722;43.212;27.932;2023-08-30T06:29:33;54850.09;;;-146.72;87.90
40994;BME280;26722;43.212;27.932;2023-08-30T06:31:59;54845.88;;;-146.72;87.68
40994;BME280;26722;43.212;27.932;2023-08-30T06:34:24;54850.09;;;-146.72;87.86
40994;BME280;26722;43.212;27.932;2023-08-30T06:36:50;54858.53;;;-146.72;87.50
40994;BME280;26722;43.212;27.932;2023-08-30T06:39:17;54847.97;;;-146.72;87.01
40994;BME280;26722;43.212;27.932;2023-08-30T06:41:43;54850.09;;;-146.72;86.58
40994;BME280;26722;43.212;27.932;2023-08-30T06:44:08;54850.09;;;-146.72;86.20
40994;BME280;26722;43.212;27.932;2023-08-30T06:46:34;54847.97;;;-146.72;85.55
40994;BME280;26722;43.212;27.932;2023-08-30T06:48:59;54835.31;;;-146.72;84.93
40994;BME280;26722;43.212;27.932;2023-08-30T06:51:25;54841.63;;;-146.72;84.48
40994;BME280;26722;43.212;27.932;2023-08-30T06:53:53;54839.53;;;-146.72;83.50
40994;BME280;26722;43.212;27.932;2023-08-30T06:56:20;54824.75;;;-146.72;83.20
40994;BME280;26722;43.212;27.932;2023-08-30T06:58:46;54833.19;;;-146.72;81.79
40994;BME280;26722;43.212;27.932;2023-08-30T07:01:11;54839.53;;;-146.72;81.89
40994;BME280;26722;43.212;27.932;2023-08-30T07:03:37;54828.97;;;-146.72;81.84
40994;BME280;26722;43.212;27.932;2023-08-30T07:06:04;54831.09;;;-146.72;80.63
40994;BME280;26722;43.212;27.932;2023-08-30T07:08:29;54841.63;;;-146.72;80.69
40994;BME280;26722;43.212;27.932;2023-08-30T07:10:56;54824.75;;;-146.72;81.20
40994;BME280;26722;43.212;27.932;2023-08-30T07:13:21;54841.63;;;-146.72;80.75
40994;BME280;26722;43.212;27.932;2023-08-30T07:15:47;54828.97;;;-146.72;80.16
40994;BME280;26722;43.212;27.932;2023-08-30T07:18:14;54824.75;;;-146.72;80.97
40994;BME280;26722;43.212;27.932;2023-08-30T07:20:39;54841.63;;;-146.72;82.45
40994;BME280;26722;43.212;27.932;2023-08-30T07:23:05;54824.75;;;-146.72;81.59
40994;BME280;26722;43.212;27.932;2023-08-30T07:25:31;54837.41;;;-146.72;80.34
40994;BME280;26722;43.212;27.932;2023-08-30T07:28:01;54833.19;;;-146.72;79.25
40994;BME280;26722;43.212;27.932;2023-08-30T07:30:26;54845.88;;;-146.72;79.31
40994;BME280;26722;43.212;27.932;2023-08-30T07:32:52;54839.53;;;-146.72;79.84
40994;BME280;26722;43.212;27.932;2023-08-30T07:35:17;54837.41;;;-146.72;80.35
40994;BME280;26722;43.212;27.932;2023-08-30T07:37:43;54839.53;;;-146.72;81.38
40994;BME280;26722;43.212;27.932;2023-08-30T07:40:09;54843.75;;;-146.72;80.38
40994;BME280;26722;43.212;27.932;2023-08-30T07:42:34;54828.97;;;-146.72;80.10
40994;BME280;26722;43.212;27.932;2023-08-30T07:45:00;54824.75;;;-146.72;80.23
40994;BME280;26722;43.212;27.932;2023-08-30T07:47:25;54833.19;;;-146.72;79.98
40994;BME280;26722;43.212;27.932;2023-08-30T07:49:51;54828.97;;;-146.72;78.77
40994;BME280;26722;43.212;27.932;2023-08-30T07:52:16;54824.75;;;-146.72;78.11
40994;BME280;26722;43.212;27.932;2023-08-30T07:54:42;54820.53;;;-146.72;78.47
40994;BME280;26722;43.212;27.932;2023-08-30T07:57:07;54812.09;;;-146.72;76.71
40994;BME280;26722;43.212;27.932;2023-08-30T07:59:34;54816.31;;;-146.72;77.02
40994;BME280;26722;43.212;27.932;2023-08-30T08:02:01;54814.19;;;-146.72;77.04
40994;BME280;26722;43.212;27.932;2023-08-30T08:04:26;54822.63;;;-146.72;76.65
40994;BME280;26722;43.212;27.932;2023-08-30T08:06:52;54816.31;;;-146.72;74.84
40994;BME280;26722;43.212;27.932;2023-08-30T08:09:17;54831.09;;;-146.72;74.88
40994;BME280;26722;43.212;27.932;2023-08-30T08:11:43;54822.63;;;-146.72;76.13
40994;BME280;26722;43.212;27.932;2023-08-30T08:14:09;54822.63;;;-146.72;76.39
40994;BME280;26722;43.212;27.932;2023-08-30T08:16:36;54841.63;;;-146.72;77.10
40994;BME280;26722;43.212;27.932;2023-08-30T08:19:01;54822.63;;;-146.72;77.61
40994;BME280;26722;43.212;27.932;2023-08-30T08:21:27;54828.97;;;-146.72;77.94
40994;BME280;26722;43.212;27.932;2023-08-30T08:23:53;54826.88;;;-146.72;77.24
40994;BME280;26722;43.212;27.932;2023-08-30T08:26:18;54822.63;;;-146.72;77.61
40994;BME280;26722;43.212;27.932;2023-08-30T08:28:44;54828.97;;;-146.72;78.12
40994;BME280;26722;43.212;27.932;2023-08-30T08:31:09;54824.75;;;-146.72;77.27
40994;BME280;26722;43.212;27.932;2023-08-30T08:33:36;54828.97;;;-146.72;76.69
40994;BME280;26722;43.212;27.932;2023-08-30T08:36:01;54822.63;;;-146.72;76.71
40994;BME280;26722;43.212;27.932;2023-08-30T08:38:27;54814.19;;;-146.72;76.47
40994;BME280;26722;43.212;27.932;2023-08-30T08:41:02;54826.88;;;-146.72;77.24
40994;BME280;26722;43.212;27.932;2023-08-30T08:43:29;54824.75;;;-146.72;76.73
40994;BME280;26722;43.212;27.932;2023-08-30T08:45:59;54824.75;;;-146.72;76.68
40994;BME280;26722;43.212;27.932;2023-08-30T08:48:28;54816.31;;;-146.72;75.38
40994;BME280;26722;43.212;27.932;2023-08-30T08:50:54;54824.75;;;-146.72;76.17
40994;BME280;26722;43.212;27.932;2023-08-30T08:53:20;54824.75;;;-146.72;75.14
40994;BME280;26722;43.212;27.932;2023-08-30T08:55:46;54828.97;;;-146.72;75.20
40994;BME280;26722;43.212;27.932;2023-08-30T08:58:13;54833.19;;;-146.72;74.52
40994;BME280;26722;43.212;27.932;2023-08-30T09:00:41;54824.75;;;-146.72;73.20
40994;BME280;26722;43.212;27.932;2023-08-30T09:03:08;54824.75;;;-146.72;74.21
40994;BME280;26722;43.212;27.932;2023-08-30T09:05:37;54828.97;;;-146.72;73.37
40994;BME280;26722;43.212;27.932;2023-08-30T09:08:04;54820.53;;;-146.72;72.65
40994;BME280;26722;43.212;27.932;2023-08-30T09:10:32;54824.75;;;-146.72;74.13
40994;BME280;26722;43.212;27.932;2023-08-30T09:12:58;54822.63;;;-146.72;75.25
40994;BME280;26722;43.212;27.932;2023-08-30T09:15:34;54807.88;;;-146.72;74.66
40994;BME280;26722;43.212;27.932;2023-08-30T09:18:02;54828.97;;;-146.72;73.95
40994;BME280;26722;43.212;27.932;2023-08-30T09:20:28;54816.31;;;-146.72;72.82
40994;BME280;26722;43.212;27.932;2023-08-30T09:22:53;54828.97;;;-146.72;72.67
40994;BME280;26722;43.212;27.932;2023-08-30T09:25:26;54816.31;;;-146.72;73.06
40994;BME280;26722;43.212;27.932;2023-08-30T09:27:59;54820.53;;;-146.72;73.59
40994;BME280;26722;43.212;27.932;2023-08-30T09:30:25;54812.09;;;-146.72;74.35
40994;BME280;26722;43.212;27.932;2023-08-30T09:32:51;54824.75;;;-146.72;74.39
40994;BME280;26722;43.212;27.932;2023-08-30T09:35:17;54831.09;;;-146.72;75.21
40994;BME280;26722;43.212;27.932;2023-08-30T09:37:46;54828.97;;;-146.72;76.24
40994;BME280;26722;43.212;27.932;2023-08-30T09:40:11;54824.75;;;-146.72;74.49
40994;BME280;26722;43.212;27.932;2023-08-30T09:42:41;54833.19;;;-146.72;74.50
40994;BME280;26722;43.212;27.932;2023-08-30T09:45:19;54828.97;;;-146.72;72.92
40994;BME280;26722;43.212;27.932;2023-08-30T09:47:48;54828.97;;;-146.72;73.69
40994;BME280;26722;43.212;27.932;2023-08-30T09:50:18;54828.97;;;-146.72;74.30
40994;BME280;26722;43.212;27.932;2023-08-30T09:52:47;54818.41;;;-146.72;74.21
40994;BME280;26722;43.212;27.932;2023-08-30T09:55:18;54831.09;;;-146.72;74.90
40994;BME280;26722;43.212;27.932;2023-08-30T09:57:44;54812.09;;;-146.72;75.44
40994;BME280;26722;43.212;27.932;2023-08-30T10:00:10;54809.97;;;-146.72;74.20
40994;BME280;26722;43.212;27.932;2023-08-30T10:02:41;54816.31;;;-146.72;73.31
40994;BME280;26722;43.212;27.932;2023-08-30T10:05:09;54812.09;;;-146.72;72.44
40994;BME280;26722;43.212;27.932;2023-08-30T10:07:39;54812.09;;;-146.72;72.34
40994;BME280;26722;43.212;27.932;2023-08-30T10:10:05;54812.09;;;-146.72;72.02
40994;BME280;26722;43.212;27.932;2023-08-30T10:12:33;54807.88;;;-146.72;71.45
40994;BME280;26722;43.212;27.932;2023-08-30T10:14:59;54820.53;;;-146.72;70.60
40994;BME280;26722;43.212;27.932;2023-08-30T10:17:32;54807.88;;;-146.72;70.22
40994;BME280;26722;43.212;27.932;2023-08-30T10:20:04;54812.09;;;-146.72;69.79
40994;BME280;26722;43.212;27.932;2023-08-30T10:22:32;54812.09;;;-146.72;70.47
40994;BME280;26722;43.212;27.932;2023-08-30T10:25:02;54807.88;;;-146.72;69.98
40994;BME280;26722;43.212;27.932;2023-08-30T10:27:34;54809.97;;;-146.72;69.98
40994;BME280;26722;43.212;27.932;2023-08-30T10:30:04;54805.75;;;-146.72;70.12
40994;BME280;26722;43.212;27.932;2023-08-30T10:32:31;54816.31;;;-146.72;69.58
40994;BME280;26722;43.212;27.932;2023-08-30T10:35:01;54807.88;;;-146.72;70.34
40994;BME280;26722;43.212;27.932;2023-08-30T10:37:27;54805.75;;;-146.72;70.07
40994;BME280;26722;43.212;27.932;2023-08-30T10:39:53;54822.63;;;-146.72;70.03
40994;BME280;26722;43.212;27.932;2023-08-30T10:42:24;54824.75;;;-146.72;71.45
40994;BME280;26722;43.212;27.932;2023-08-30T10:45:06;54814.19;;;-146.72;71.86
40994;BME280;26722;43.212;27.932;2023-08-30T10:47:34;54820.53;;;-146.72;72.10
40994;BME280;26722;43.212;27.932;2023-08-30T10:50:12;54816.31;;;-146.72;72.19
40994;BME280;26722;43.212;27.932;2023-08-30T10:52:38;54803.63;;;-146.72;72.31
40994;BME280;26722;43.212;27.932;2023-08-30T10:55:11;54805.75;;;-146.72;71.43
40994;BME280;26722;43.212;27.932;2023-08-30T10:57:41;54816.31;;;-146.72;72.77
40994;BME280;26722;43.212;27.932;2023-08-30T11:00:23;54799.41;;;-146.72;72.23
40994;BME280;26722;43.212;27.932;2023-08-30T11:02:49;54816.31;;;-146.72;71.16
40994;BME280;26722;43.212;27.932;2023-08-30T11:05:16;54816.31;;;-146.72;71.48
40994;BME280;26722;43.212;27.932;2023-08-30T11:07:45;54824.75;;;-146.72;71.45
40994;BME280;26722;43.212;27.932;2023-08-30T11:10:11;54826.88;;;-146.72;72.21
40994;BME280;26722;43.212;27.932;2023-08-30T11:12:40;54820.53;;;-146.72;73.61
40994;BME280;26722;43.212;27.932;2023-08-30T11:15:07;54820.53;;;-146.72;74.04
40994;BME280;26722;43.212;27.932;2023-08-30T11:17:34;54828.97;;;-146.72;75.16
40994;BME280;26722;43.212;27.932;2023-08-30T11:20:07;54816.31;;;-146.72;74.67
40994;BME280;26722;43.212;27.932;2023-08-30T11:22:53;54816.31;;;-146.72;73.51
40994;BME280;26722;43.212;27.932;2023-08-30T11:25:20;54818.41;;;-146.72;73.54
40994;BME280;26722;43.212;27.932;2023-08-30T11:27:46;54820.53;;;-146.72;73.11
40994;BME280;26722;43.212;27.932;2023-08-30T11:30:12;54799.41;;;-146.72;73.42
40994;BME280;26722;43.212;27.932;2023-08-30T11:32:39;54812.09;;;-146.72;73.86
40994;BME280;26722;43.212;27.932;2023-08-30T11:35:06;54820.53;;;-146.72;71.37
40994;BME280;26722;43.212;27.932;2023-08-30T11:37:32;54824.75;;;-146.72;72.07
40994;BME280;26722;43.212;27.932;2023-08-30T11:39:59;54824.75;;;-146.72;72.31
40994;BME280;26722;43.212;27.932;2023-08-30T11:42:25;54816.31;;;-146.72;72.49
40994;BME280;26722;43.212;27.932;2023-08-30T11:44:51;54816.31;;;-146.72;72.31
40994;BME280;26722;43.212;27.932;2023-08-30T11:47:23;54822.63;;;-146.72;72.41
40994;BME280;26722;43.212;27.932;2023-08-30T11:49:50;54824.75;;;-146.72;74.52
40994;BME280;26722;43.212;27.932;2023-08-30T11:52:18;54820.53;;;-146.72;74.42
40994;BME280;26722;43.212;27.932;2023-08-30T11:54:44;54820.53;;;-146.72;73.04
40994;BME280;26722;43.212;27.932;2023-08-30T11:57:10;54820.53;;;-146.72;72.67
40994;BME280;26722;43.212;27.932;2023-08-30T11:59:35;54822.63;;;-146.72;72.83
40994;BME280;26722;43.212;27.932;2023-08-30T12:02:02;54820.53;;;-146.72;72.95
40994;BME280;26722;43.212;27.932;2023-08-30T12:04:29;54833.19;;;-146.72;74.06
40994;BME280;26722;43.212;27.932;2023-08-30T12:06:54;54828.97;;;-146.72;73.30
40994;BME280;26722;43.212;27.932;2023-08-30T12:09:20;54826.88;;;-146.72;74.37
40994;BME280;26722;43.212;27.932;2023-08-30T12:11:48;54841.63;;;-146.72;75.02
40994;BME280;26722;43.212;27.932;2023-08-30T12:14:14;54835.31;;;-146.72;75.71
40994;BME280;26722;43.212;27.932;2023-08-30T12:16:40;54826.88;;;-146.72;76.43
40994;BME280;26722;43.212;27.932;2023-08-30T12:19:10;54837.41;;;-146.72;76.89
40994;BME280;26722;43.212;27.932;2023-08-30T12:21:42;54824.75;;;-146.72;76.73
40994;BME280;26722;43.212;27.932;2023-08-30T12:24:09;54820.53;;;-146.72;75.04
40994;BME280;26722;43.212;27.932;2023-08-30T12:26:34;54824.75;;;-146.72;75.57